EJU98AL GCLA-EDDB
Flight info
| Callsign | EJU98AL |
|---|---|
| Flight time | 4h 37m |
| Altitude | 34000 |
| Route | KONBA UN866 BEXAL/N0440F360 DCT GODGI DCT MANEL DCT MAGUM DCT ABRAT DCT PINOX DCT RIVRO DCT TOSDI DCT ZMR DCT NUBLO DCT RONSI DCT DELOG DCT DIDIG DCT ARDOD DCT OBATO UM163 LEQOS DCT CTL DCT ARDEN/N0430F370 DCT KOMOB DCT NVO DCT LARBU DCT HLZ DCT BATEL T207 OGBER OGBER1L |
| Aircraft | A320/M-SDE2E3FGHIJ1RWXY/LB1 |
Departure
| Time | 2026-05-04 06:52 |
|---|---|
| Airport | La Palma Airport (GCLA) |
Arrival
| Time | 2026-05-04 11:29 |
|---|---|
| Airport | Berlin Brandenburg Airport (EDDB) |
| Time | Latitude | Longitude | Altitude | Speed | Heading |
|---|---|---|---|---|---|
| 2026-05-04 06:09 | 28.62123 | -17.75351 | 87 ft | 0 kts | 89° |
| 2026-05-04 06:45 | 28.62123 | -17.75368 | 114 ft | 4 kts | 91° |
| 2026-05-04 06:45 | 28.62125 | -17.75398 | 112 ft | 4 kts | 101° |
| 2026-05-04 06:45 | 28.62132 | -17.75427 | 112 ft | 4 kts | 126° |
| 2026-05-04 06:45 | 28.62149 | -17.75441 | 112 ft | 1 kts | 179° |
| 2026-05-04 06:46 | 28.62154 | -17.75441 | 113 ft | 0 kts | 179° |
| 2026-05-04 06:49 | 28.62153 | -17.75441 | 113 ft | 1 kts | 179° |
| 2026-05-04 06:50 | 28.61649 | -17.75570 | 111 ft | 10 kts | 179° |
| 2026-05-04 06:51 | 28.61650 | -17.75540 | 111 ft | 4 kts | 359° |
| 2026-05-04 06:51 | 28.61651 | -17.75540 | 111 ft | 0 kts | 359° |
| 2026-05-04 06:51 | 28.61879 | -17.75545 | 116 ft | 70 kts | 359° |
| 2026-05-04 06:52 | 28.62594 | -17.75560 | 109 ft | 133 kts | 359° |
| 2026-05-04 06:52 | 28.63663 | -17.75589 | 341 ft | 162 kts | 356° |
| 2026-05-04 06:52 | 28.64776 | -17.75520 | 1078 ft | 162 kts | 18° |
| 2026-05-04 06:52 | 28.65740 | -17.74812 | 1508 ft | 176 kts | 51° |
| 2026-05-04 06:53 | 28.66245 | -17.73487 | 1778 ft | 193 kts | 85° |
| 2026-05-04 06:53 | 28.66277 | -17.71893 | 2106 ft | 211 kts | 90° |
| 2026-05-04 06:53 | 28.66276 | -17.70126 | 2375 ft | 236 kts | 89° |
| 2026-05-04 06:53 | 28.66310 | -17.68187 | 2857 ft | 251 kts | 83° |
| 2026-05-04 06:54 | 28.66922 | -17.66309 | 3537 ft | 259 kts | 55° |
| 2026-05-04 06:54 | 28.68087 | -17.64711 | 4252 ft | 266 kts | 50° |
| 2026-05-04 06:54 | 28.69288 | -17.63086 | 5012 ft | 270 kts | 50° |
| 2026-05-04 06:54 | 28.70507 | -17.61427 | 5695 ft | 277 kts | 49° |
| 2026-05-04 06:55 | 28.71759 | -17.59725 | 6396 ft | 283 kts | 49° |
| 2026-05-04 06:55 | 28.73026 | -17.57986 | 7068 ft | 288 kts | 49° |
| 2026-05-04 06:55 | 28.74311 | -17.56211 | 7735 ft | 293 kts | 49° |
| 2026-05-04 06:55 | 28.75617 | -17.54402 | 8400 ft | 298 kts | 49° |
| 2026-05-04 06:56 | 28.76947 | -17.52559 | 9068 ft | 304 kts | 49° |
| 2026-05-04 06:57 | 28.87547 | -17.37882 | 12480 ft | 373 kts | 48° |
| 2026-05-04 06:58 | 28.89206 | -17.35579 | 13088 ft | 377 kts | 48° |
| 2026-05-04 06:58 | 28.90878 | -17.33253 | 13681 ft | 381 kts | 48° |
| 2026-05-04 06:58 | 28.92568 | -17.30901 | 14227 ft | 385 kts | 48° |
| 2026-05-04 06:58 | 28.94273 | -17.28531 | 14776 ft | 388 kts | 48° |
| 2026-05-04 06:59 | 28.95989 | -17.26142 | 15308 ft | 391 kts | 48° |
| 2026-05-04 06:59 | 28.97718 | -17.23732 | 15865 ft | 393 kts | 48° |
| 2026-05-04 06:59 | 28.99457 | -17.21309 | 16439 ft | 396 kts | 48° |
| 2026-05-04 06:59 | 29.01207 | -17.18870 | 17002 ft | 398 kts | 49° |
| 2026-05-04 07:01 | 29.13794 | -17.01278 | 20228 ft | 420 kts | 49° |
| 2026-05-04 07:01 | 29.15652 | -16.98680 | 20617 ft | 424 kts | 49° |
| 2026-05-04 07:02 | 29.17522 | -16.96060 | 21015 ft | 427 kts | 49° |
| 2026-05-04 07:02 | 29.19407 | -16.93416 | 21400 ft | 430 kts | 49° |
| 2026-05-04 07:02 | 29.21307 | -16.90745 | 21786 ft | 434 kts | 49° |
| 2026-05-04 07:02 | 29.23218 | -16.88061 | 22168 ft | 437 kts | 49° |
| 2026-05-04 07:03 | 29.25149 | -16.85351 | 22542 ft | 441 kts | 49° |
| 2026-05-04 07:03 | 29.27093 | -16.82622 | 22914 ft | 444 kts | 49° |
| 2026-05-04 07:03 | 29.29052 | -16.79871 | 23277 ft | 447 kts | 49° |
| 2026-05-04 07:03 | 29.31025 | -16.77099 | 23634 ft | 450 kts | 49° |
| 2026-05-04 07:04 | 29.33008 | -16.74303 | 23960 ft | 453 kts | 49° |
| 2026-05-04 07:04 | 29.34999 | -16.71492 | 24300 ft | 455 kts | 49° |
| 2026-05-04 07:04 | 29.36997 | -16.68670 | 24597 ft | 458 kts | 49° |
| 2026-05-04 07:04 | 29.39010 | -16.65825 | 24870 ft | 461 kts | 49° |
| 2026-05-04 07:05 | 29.41034 | -16.62964 | 25173 ft | 463 kts | 49° |
| 2026-05-04 07:05 | 29.43068 | -16.60088 | 25471 ft | 465 kts | 49° |
| 2026-05-04 07:05 | 29.45111 | -16.57198 | 25770 ft | 468 kts | 49° |
| 2026-05-04 07:05 | 29.47138 | -16.54329 | 26059 ft | 470 kts | 49° |
| 2026-05-04 07:06 | 29.51295 | -16.48433 | 26633 ft | 474 kts | 49° |
| 2026-05-04 07:06 | 29.53348 | -16.45517 | 26924 ft | 477 kts | 49° |
| 2026-05-04 07:06 | 29.55464 | -16.42513 | 27207 ft | 479 kts | 49° |
| 2026-05-04 07:07 | 29.57536 | -16.39573 | 27485 ft | 481 kts | 49° |
| 2026-05-04 07:08 | 29.71935 | -16.17787 | 29353 ft | 496 kts | 51° |
| 2026-05-04 07:09 | 29.74018 | -16.14609 | 29606 ft | 498 kts | 51° |
| 2026-05-04 07:09 | 29.76116 | -16.11423 | 29846 ft | 500 kts | 51° |
| 2026-05-04 07:09 | 29.78220 | -16.08224 | 30084 ft | 502 kts | 51° |
| 2026-05-04 07:09 | 29.80328 | -16.05005 | 30290 ft | 504 kts | 51° |
| 2026-05-04 07:10 | 29.82467 | -16.01729 | 30499 ft | 505 kts | 51° |
| 2026-05-04 07:10 | 29.84576 | -15.98495 | 30756 ft | 505 kts | 51° |
| 2026-05-04 07:12 | 30.00513 | -15.77164 | 32424 ft | 496 kts | 26° |
| 2026-05-04 07:12 | 30.03540 | -15.75339 | 32753 ft | 487 kts | 17° |
| 2026-05-04 07:12 | 30.06709 | -15.74041 | 33036 ft | 480 kts | 10° |
| 2026-05-04 07:12 | 30.09905 | -15.72929 | 33302 ft | 480 kts | 10° |
| 2026-05-04 07:13 | 30.13100 | -15.71807 | 33565 ft | 480 kts | 10° |
| 2026-05-04 07:13 | 30.16291 | -15.70686 | 33830 ft | 479 kts | 9° |
| 2026-05-04 07:13 | 30.19481 | -15.69563 | 34060 ft | 479 kts | 9° |
| 2026-05-04 07:14 | 30.35287 | -15.63977 | 34122 ft | 472 kts | 10° |
| 2026-05-04 07:15 | 30.41561 | -15.61762 | 34125 ft | 471 kts | 10° |
| 2026-05-04 07:15 | 30.47833 | -15.59557 | 34125 ft | 471 kts | 10° |
| 2026-05-04 07:16 | 30.54103 | -15.57336 | 34122 ft | 471 kts | 10° |
| 2026-05-04 07:16 | 30.60369 | -15.55109 | 34143 ft | 471 kts | 11° |
| 2026-05-04 07:17 | 30.66623 | -15.52880 | 34141 ft | 470 kts | 11° |
| 2026-05-04 07:17 | 30.72875 | -15.50657 | 34139 ft | 469 kts | 11° |
| 2026-05-04 07:18 | 30.78065 | -15.48815 | 34139 ft | 469 kts | 11° |
| 2026-05-04 07:18 | 30.84306 | -15.46590 | 34135 ft | 469 kts | 11° |
| 2026-05-04 07:19 | 30.90542 | -15.44354 | 34151 ft | 469 kts | 11° |
| 2026-05-04 07:19 | 30.96767 | -15.42129 | 34143 ft | 468 kts | 11° |
| 2026-05-04 07:20 | 31.02984 | -15.39908 | 34139 ft | 467 kts | 11° |
| 2026-05-04 07:20 | 31.09196 | -15.37689 | 34136 ft | 467 kts | 11° |
| 2026-05-04 07:22 | 31.30819 | -15.29455 | 34128 ft | 473 kts | 24° |
| 2026-05-04 07:22 | 31.33634 | -15.27431 | 34131 ft | 476 kts | 30° |
| 2026-05-04 07:23 | 31.39149 | -15.23134 | 34112 ft | 476 kts | 30° |
| 2026-05-04 07:23 | 31.44678 | -15.18852 | 34135 ft | 476 kts | 30° |
| 2026-05-04 07:24 | 31.50202 | -15.14579 | 34139 ft | 476 kts | 30° |
| 2026-05-04 07:24 | 31.55710 | -15.10283 | 34136 ft | 475 kts | 30° |
| 2026-05-04 07:26 | 31.77715 | -14.93105 | 34137 ft | 474 kts | 30° |
| 2026-05-04 07:27 | 31.83204 | -14.88804 | 34135 ft | 474 kts | 30° |
| 2026-05-04 07:27 | 31.88688 | -14.84500 | 34129 ft | 474 kts | 30° |
| 2026-05-04 07:28 | 31.94172 | -14.80191 | 34124 ft | 474 kts | 30° |
| 2026-05-04 07:28 | 31.99642 | -14.75870 | 34120 ft | 474 kts | 30° |
| 2026-05-04 07:29 | 32.05121 | -14.71549 | 34129 ft | 474 kts | 30° |
| 2026-05-04 07:29 | 32.10603 | -14.67231 | 34116 ft | 474 kts | 30° |
| 2026-05-04 07:30 | 32.16055 | -14.62933 | 34118 ft | 475 kts | 30° |
| 2026-05-04 07:30 | 32.21574 | -14.58556 | 34118 ft | 475 kts | 30° |
| 2026-05-04 07:31 | 32.27026 | -14.54221 | 34113 ft | 476 kts | 30° |
| 2026-05-04 07:33 | 32.49012 | -14.36724 | 34133 ft | 476 kts | 30° |
| 2026-05-04 07:33 | 32.54502 | -14.32331 | 34131 ft | 476 kts | 30° |
| 2026-05-04 07:34 | 32.59994 | -14.27941 | 34134 ft | 476 kts | 30° |
| 2026-05-04 07:34 | 32.65525 | -14.23513 | 34128 ft | 476 kts | 30° |
| 2026-05-04 07:35 | 32.71013 | -14.19102 | 34130 ft | 476 kts | 30° |
| 2026-05-04 07:35 | 32.76503 | -14.14691 | 34135 ft | 476 kts | 30° |
| 2026-05-04 07:36 | 32.81952 | -14.10311 | 34134 ft | 476 kts | 30° |
| 2026-05-04 07:38 | 33.03847 | -13.92626 | 34151 ft | 474 kts | 29° |
| 2026-05-04 07:38 | 33.09299 | -13.88200 | 34149 ft | 474 kts | 29° |
| 2026-05-04 07:39 | 33.14746 | -13.83771 | 34159 ft | 474 kts | 29° |
| 2026-05-04 07:39 | 33.20185 | -13.79334 | 34176 ft | 473 kts | 29° |
| 2026-05-04 07:40 | 33.25604 | -13.74887 | 34171 ft | 472 kts | 29° |
| 2026-05-04 07:40 | 33.31013 | -13.70434 | 34153 ft | 471 kts | 29° |
| 2026-05-04 07:41 | 33.36417 | -13.65986 | 34148 ft | 471 kts | 29° |
| 2026-05-04 07:41 | 33.41819 | -13.61548 | 34150 ft | 471 kts | 29° |
| 2026-05-04 07:42 | 33.47220 | -13.57092 | 34184 ft | 471 kts | 28° |
| 2026-05-04 07:42 | 33.52614 | -13.52620 | 34171 ft | 472 kts | 28° |
| 2026-05-04 07:43 | 33.58012 | -13.48147 | 34161 ft | 472 kts | 28° |
| 2026-05-04 07:43 | 33.63406 | -13.43671 | 34155 ft | 472 kts | 28° |
| 2026-05-04 07:44 | 33.68810 | -13.39189 | 34152 ft | 472 kts | 28° |
| 2026-05-04 07:44 | 33.74206 | -13.34709 | 34150 ft | 472 kts | 28° |
| 2026-05-04 07:45 | 33.79611 | -13.30214 | 34159 ft | 473 kts | 27° |
| 2026-05-04 07:45 | 33.85023 | -13.25700 | 34148 ft | 474 kts | 27° |
| 2026-05-04 07:46 | 33.90443 | -13.21167 | 34143 ft | 475 kts | 28° |
| 2026-05-04 07:46 | 33.95861 | -13.16624 | 34146 ft | 475 kts | 28° |
| 2026-05-04 07:47 | 34.01285 | -13.12078 | 34147 ft | 475 kts | 27° |
| 2026-05-04 07:49 | 34.23023 | -12.93779 | 34145 ft | 477 kts | 27° |
| 2026-05-04 07:49 | 34.28424 | -12.89213 | 34148 ft | 477 kts | 27° |
| 2026-05-04 07:50 | 34.33874 | -12.84650 | 34177 ft | 476 kts | 27° |
| 2026-05-04 07:50 | 34.39319 | -12.80103 | 34177 ft | 475 kts | 27° |
| 2026-05-04 07:51 | 34.44755 | -12.75545 | 34183 ft | 475 kts | 27° |
| 2026-05-04 07:51 | 34.50179 | -12.70982 | 34178 ft | 474 kts | 27° |
| 2026-05-04 07:52 | 34.55595 | -12.66409 | 34176 ft | 474 kts | 27° |
| 2026-05-04 07:52 | 34.61003 | -12.61837 | 34195 ft | 474 kts | 27° |
| 2026-05-04 07:54 | 34.82582 | -12.43558 | 34167 ft | 472 kts | 27° |
| 2026-05-04 07:55 | 34.87968 | -12.38985 | 34202 ft | 472 kts | 27° |
| 2026-05-04 07:55 | 34.93355 | -12.34389 | 34178 ft | 473 kts | 27° |
| 2026-05-04 07:56 | 34.98743 | -12.29782 | 34163 ft | 473 kts | 27° |
| 2026-05-04 07:56 | 35.04125 | -12.25171 | 34159 ft | 473 kts | 27° |
| 2026-05-04 07:57 | 35.09514 | -12.20560 | 34159 ft | 473 kts | 27° |
| 2026-05-04 07:57 | 35.14903 | -12.15943 | 34186 ft | 473 kts | 27° |
| 2026-05-04 07:58 | 35.20297 | -12.11315 | 34162 ft | 474 kts | 27° |
| 2026-05-04 07:58 | 35.25693 | -12.06666 | 34159 ft | 474 kts | 27° |
| 2026-05-04 07:59 | 35.31087 | -12.02004 | 34165 ft | 475 kts | 27° |
| 2026-05-04 07:59 | 35.36487 | -11.97350 | 34155 ft | 475 kts | 27° |
| 2026-05-04 08:00 | 35.41890 | -11.92674 | 34153 ft | 476 kts | 27° |
| 2026-05-04 08:02 | 35.62593 | -11.74696 | 34150 ft | 476 kts | 27° |
| 2026-05-04 08:02 | 35.67985 | -11.69974 | 34178 ft | 476 kts | 27° |
| 2026-05-04 08:03 | 35.73385 | -11.65259 | 34162 ft | 476 kts | 27° |
| 2026-05-04 08:03 | 35.78786 | -11.60531 | 34152 ft | 476 kts | 27° |
| 2026-05-04 08:04 | 35.84189 | -11.55802 | 34145 ft | 476 kts | 27° |
| 2026-05-04 08:04 | 35.89593 | -11.51070 | 34144 ft | 477 kts | 27° |
| 2026-05-04 08:05 | 35.95001 | -11.46317 | 34181 ft | 479 kts | 27° |
| 2026-05-04 08:05 | 35.97719 | -11.43916 | 34349 ft | 482 kts | 28° |
| 2026-05-04 08:05 | 36.00444 | -11.41502 | 34542 ft | 482 kts | 28° |
| 2026-05-04 08:06 | 36.03172 | -11.39084 | 34761 ft | 482 kts | 28° |
| 2026-05-04 08:06 | 36.05898 | -11.36667 | 34971 ft | 482 kts | 28° |
| 2026-05-04 08:06 | 36.08621 | -11.34248 | 35193 ft | 482 kts | 28° |
| 2026-05-04 08:06 | 36.11342 | -11.31830 | 35398 ft | 482 kts | 28° |
| 2026-05-04 08:08 | 36.30357 | -11.14898 | 36161 ft | 479 kts | 29° |
| 2026-05-04 08:08 | 36.33061 | -11.12482 | 36166 ft | 478 kts | 29° |
| 2026-05-04 08:11 | 36.57327 | -10.90703 | 36192 ft | 477 kts | 29° |
| 2026-05-04 08:11 | 36.65389 | -10.83428 | 36167 ft | 477 kts | 30° |
| 2026-05-04 08:12 | 36.70750 | -10.78568 | 36160 ft | 477 kts | 30° |
| 2026-05-04 08:12 | 36.76114 | -10.73707 | 36180 ft | 476 kts | 30° |
| 2026-05-04 08:13 | 36.81474 | -10.68843 | 36170 ft | 476 kts | 30° |
| 2026-05-04 08:13 | 36.86825 | -10.63967 | 36161 ft | 476 kts | 30° |
| 2026-05-04 08:14 | 36.92179 | -10.59104 | 36153 ft | 476 kts | 30° |
| 2026-05-04 08:16 | 37.13580 | -10.39511 | 36157 ft | 476 kts | 30° |
| 2026-05-04 08:16 | 37.18922 | -10.34598 | 36157 ft | 476 kts | 30° |
| 2026-05-04 08:17 | 37.24265 | -10.29688 | 36156 ft | 476 kts | 30° |
| 2026-05-04 08:17 | 37.29604 | -10.24775 | 36175 ft | 476 kts | 30° |
| 2026-05-04 08:19 | 37.50874 | -10.05066 | 36150 ft | 476 kts | 30° |
| 2026-05-04 08:20 | 37.56195 | -10.00102 | 36170 ft | 476 kts | 31° |
| 2026-05-04 08:20 | 37.61515 | -9.95134 | 36158 ft | 475 kts | 30° |
| 2026-05-04 08:21 | 37.66832 | -9.90171 | 36158 ft | 475 kts | 31° |
| 2026-05-04 08:21 | 37.72142 | -9.85202 | 36150 ft | 475 kts | 31° |
| 2026-05-04 08:22 | 37.77449 | -9.80224 | 36148 ft | 475 kts | 31° |
| 2026-05-04 08:24 | 37.98704 | -9.60216 | 36147 ft | 476 kts | 31° |
| 2026-05-04 08:24 | 38.04013 | -9.55182 | 36149 ft | 476 kts | 31° |
| 2026-05-04 08:25 | 38.09326 | -9.50151 | 36141 ft | 476 kts | 31° |
| 2026-05-04 08:25 | 38.14631 | -9.45113 | 36150 ft | 477 kts | 31° |
| 2026-05-04 08:27 | 38.35879 | -9.24836 | 36129 ft | 477 kts | 31° |
| 2026-05-04 08:28 | 38.41180 | -9.19741 | 36131 ft | 477 kts | 31° |
| 2026-05-04 08:28 | 38.46427 | -9.14520 | 36132 ft | 479 kts | 33° |
| 2026-05-04 08:29 | 38.51553 | -9.09052 | 36132 ft | 480 kts | 34° |
| 2026-05-04 08:31 | 38.72135 | -8.87151 | 36126 ft | 482 kts | 34° |
| 2026-05-04 08:33 | 38.92709 | -8.65160 | 36113 ft | 481 kts | 34° |
| 2026-05-04 08:35 | 39.13286 | -8.43006 | 36138 ft | 482 kts | 34° |
| 2026-05-04 08:35 | 39.18409 | -8.37452 | 36129 ft | 481 kts | 35° |
| 2026-05-04 08:37 | 39.36105 | -8.17606 | 36124 ft | 481 kts | 36° |
| 2026-05-04 08:38 | 39.41153 | -8.11941 | 36117 ft | 480 kts | 36° |
| 2026-05-04 08:38 | 39.46154 | -8.06308 | 36112 ft | 479 kts | 36° |
| 2026-05-04 08:40 | 39.66239 | -7.83580 | 36104 ft | 477 kts | 37° |
| 2026-05-04 08:41 | 39.71231 | -7.77903 | 36100 ft | 477 kts | 37° |
| 2026-05-04 08:41 | 39.76213 | -7.72215 | 36097 ft | 477 kts | 37° |
| 2026-05-04 08:42 | 39.81193 | -7.66533 | 36110 ft | 476 kts | 37° |
| 2026-05-04 08:42 | 39.86160 | -7.60842 | 36107 ft | 476 kts | 37° |
| 2026-05-04 08:43 | 39.91109 | -7.55114 | 36086 ft | 476 kts | 38° |
| 2026-05-04 08:43 | 39.96061 | -7.49368 | 36077 ft | 477 kts | 37° |
| 2026-05-04 08:44 | 40.00993 | -7.43666 | 36070 ft | 477 kts | 37° |
| 2026-05-04 08:46 | 40.20006 | -7.21525 | 36079 ft | 477 kts | 38° |
| 2026-05-04 08:46 | 40.24956 | -7.15728 | 36068 ft | 478 kts | 38° |
| 2026-05-04 08:47 | 40.29914 | -7.09914 | 36096 ft | 478 kts | 38° |
| 2026-05-04 08:47 | 40.34896 | -7.04138 | 36085 ft | 478 kts | 38° |
| 2026-05-04 08:48 | 40.39888 | -6.98388 | 36083 ft | 478 kts | 38° |
| 2026-05-04 08:48 | 40.44869 | -6.92617 | 36084 ft | 478 kts | 38° |
| 2026-05-04 08:49 | 40.49845 | -6.86828 | 36095 ft | 478 kts | 38° |
| 2026-05-04 08:50 | 40.67202 | -6.66502 | 36078 ft | 479 kts | 38° |
| 2026-05-04 08:51 | 40.72179 | -6.60667 | 36093 ft | 479 kts | 38° |
| 2026-05-04 08:51 | 40.77155 | -6.54828 | 36095 ft | 479 kts | 39° |
| 2026-05-04 08:52 | 40.82123 | -6.48973 | 36087 ft | 479 kts | 39° |
| 2026-05-04 08:52 | 40.87080 | -6.43101 | 36075 ft | 479 kts | 39° |
| 2026-05-04 08:54 | 41.06946 | -6.19517 | 36071 ft | 479 kts | 39° |
| 2026-05-04 08:55 | 41.11897 | -6.13601 | 36068 ft | 479 kts | 39° |
| 2026-05-04 08:55 | 41.16840 | -6.07676 | 36051 ft | 479 kts | 40° |
| 2026-05-04 09:01 | 41.72300 | -5.53112 | 36046 ft | 473 kts | 20° |
| 2026-05-04 09:01 | 41.78354 | -5.49684 | 36036 ft | 472 kts | 20° |
| 2026-05-04 09:02 | 41.84402 | -5.46252 | 36034 ft | 472 kts | 20° |
| 2026-05-04 09:02 | 41.90444 | -5.42818 | 36037 ft | 472 kts | 20° |
| 2026-05-04 09:03 | 41.96482 | -5.39371 | 36034 ft | 471 kts | 20° |
| 2026-05-04 09:03 | 42.02516 | -5.35919 | 36018 ft | 471 kts | 20° |
| 2026-05-04 09:04 | 42.08552 | -5.32474 | 36019 ft | 471 kts | 20° |
| 2026-05-04 09:04 | 42.14594 | -5.29008 | 36006 ft | 472 kts | 21° |
| 2026-05-04 09:05 | 42.20638 | -5.25532 | 36000 ft | 473 kts | 21° |
| 2026-05-04 09:05 | 42.26691 | -5.22052 | 35996 ft | 473 kts | 21° |
| 2026-05-04 09:06 | 42.32747 | -5.18562 | 36012 ft | 473 kts | 21° |
| 2026-05-04 09:08 | 42.56931 | -5.04533 | 36025 ft | 472 kts | 21° |
| 2026-05-04 09:08 | 42.62967 | -5.01023 | 36028 ft | 472 kts | 21° |
| 2026-05-04 09:09 | 42.68954 | -4.97521 | 36028 ft | 472 kts | 21° |
| 2026-05-04 09:09 | 42.74982 | -4.93987 | 36007 ft | 472 kts | 21° |
| 2026-05-04 09:10 | 42.81057 | -4.90425 | 36001 ft | 473 kts | 21° |
| 2026-05-04 09:10 | 42.87059 | -4.86906 | 36002 ft | 473 kts | 21° |
| 2026-05-04 09:11 | 42.93113 | -4.83345 | 36025 ft | 474 kts | 21° |
| 2026-05-04 09:11 | 42.99204 | -4.79744 | 36027 ft | 474 kts | 21° |
| 2026-05-04 09:12 | 43.05247 | -4.76157 | 36030 ft | 474 kts | 21° |
| 2026-05-04 09:14 | 43.29405 | -4.61781 | 36051 ft | 473 kts | 22° |
| 2026-05-04 09:14 | 43.35430 | -4.58171 | 36073 ft | 472 kts | 22° |
| 2026-05-04 09:15 | 43.41460 | -4.54562 | 36041 ft | 473 kts | 22° |
| 2026-05-04 09:15 | 43.47448 | -4.50967 | 36042 ft | 473 kts | 22° |
| 2026-05-04 09:17 | 43.74577 | -4.34572 | 36050 ft | 473 kts | 22° |
| 2026-05-04 09:18 | 43.80596 | -4.30912 | 36057 ft | 472 kts | 22° |
| 2026-05-04 09:18 | 43.86614 | -4.27241 | 36051 ft | 472 kts | 22° |
| 2026-05-04 09:19 | 43.92621 | -4.23561 | 36041 ft | 472 kts | 22° |
| 2026-05-04 09:19 | 43.98630 | -4.19881 | 36042 ft | 472 kts | 23° |
| 2026-05-04 09:20 | 44.04646 | -4.16202 | 36041 ft | 472 kts | 23° |
| 2026-05-04 09:20 | 44.10652 | -4.12507 | 36037 ft | 472 kts | 23° |
| 2026-05-04 09:21 | 44.16655 | -4.08800 | 36051 ft | 472 kts | 23° |
| 2026-05-04 09:21 | 44.22656 | -4.05102 | 36047 ft | 472 kts | 23° |
| 2026-05-04 09:22 | 44.28652 | -4.01389 | 36037 ft | 471 kts | 23° |
| 2026-05-04 09:22 | 44.34476 | -3.97215 | 36032 ft | 471 kts | 35° |
| 2026-05-04 09:23 | 44.39850 | -3.91960 | 36034 ft | 471 kts | 35° |
| 2026-05-04 09:23 | 44.45233 | -3.86727 | 36031 ft | 471 kts | 35° |
| 2026-05-04 09:25 | 44.66733 | -3.65660 | 36020 ft | 471 kts | 35° |
| 2026-05-04 09:26 | 44.72098 | -3.60360 | 36022 ft | 471 kts | 35° |
| 2026-05-04 09:26 | 44.77462 | -3.55058 | 36021 ft | 471 kts | 35° |
| 2026-05-04 09:27 | 44.82826 | -3.49745 | 36018 ft | 471 kts | 35° |
| 2026-05-04 09:27 | 44.88183 | -3.44425 | 36018 ft | 471 kts | 35° |
| 2026-05-04 09:28 | 44.92636 | -3.39988 | 36000 ft | 471 kts | 35° |
| 2026-05-04 09:28 | 44.97990 | -3.34639 | 36010 ft | 472 kts | 35° |
| 2026-05-04 09:29 | 45.03351 | -3.29286 | 36009 ft | 472 kts | 35° |
| 2026-05-04 09:29 | 45.08707 | -3.23922 | 36011 ft | 472 kts | 36° |
| 2026-05-04 09:30 | 45.14054 | -3.18540 | 36014 ft | 472 kts | 36° |
| 2026-05-04 09:30 | 45.19402 | -3.13157 | 36023 ft | 471 kts | 36° |
| 2026-05-04 09:31 | 45.24745 | -3.07777 | 36005 ft | 471 kts | 36° |
| 2026-05-04 09:31 | 45.30077 | -3.02393 | 36005 ft | 470 kts | 36° |
| 2026-05-04 09:32 | 45.35402 | -2.96981 | 36014 ft | 470 kts | 36° |
| 2026-05-04 09:34 | 45.56671 | -2.75279 | 36018 ft | 470 kts | 36° |
| 2026-05-04 09:34 | 45.61978 | -2.69832 | 35995 ft | 470 kts | 37° |
| 2026-05-04 09:35 | 45.67290 | -2.64370 | 35992 ft | 471 kts | 37° |
| 2026-05-04 09:35 | 45.72573 | -2.58930 | 35993 ft | 471 kts | 37° |
| 2026-05-04 09:37 | 45.93822 | -2.36891 | 35987 ft | 472 kts | 37° |
| 2026-05-04 09:38 | 45.99134 | -2.31345 | 35987 ft | 472 kts | 37° |
| 2026-05-04 09:38 | 46.04446 | -2.25810 | 35991 ft | 472 kts | 34° |
| 2026-05-04 09:39 | 46.10162 | -2.21174 | 35992 ft | 472 kts | 28° |
| 2026-05-04 09:39 | 46.15955 | -2.16699 | 35994 ft | 472 kts | 28° |
| 2026-05-04 09:40 | 46.21733 | -2.12205 | 35999 ft | 472 kts | 29° |
| 2026-05-04 09:40 | 46.27505 | -2.07697 | 35997 ft | 472 kts | 29° |
| 2026-05-04 09:42 | 46.50587 | -1.89609 | 35986 ft | 472 kts | 29° |
| 2026-05-04 09:43 | 46.56359 | -1.85073 | 35990 ft | 472 kts | 29° |
| 2026-05-04 09:43 | 46.62125 | -1.80523 | 35996 ft | 472 kts | 29° |
| 2026-05-04 09:44 | 46.67887 | -1.75960 | 35994 ft | 471 kts | 29° |
| 2026-05-04 09:46 | 46.90910 | -1.57611 | 35986 ft | 471 kts | 29° |
| 2026-05-04 09:46 | 46.96661 | -1.53007 | 35991 ft | 471 kts | 29° |
| 2026-05-04 09:47 | 47.02409 | -1.48387 | 35996 ft | 471 kts | 29° |
| 2026-05-04 09:49 | 47.25372 | -1.29825 | 36003 ft | 471 kts | 30° |
| 2026-05-04 09:51 | 47.45404 | -1.13475 | 35988 ft | 470 kts | 30° |
| 2026-05-04 09:51 | 47.51124 | -1.08780 | 35989 ft | 470 kts | 30° |
| 2026-05-04 09:52 | 47.56840 | -1.04066 | 35986 ft | 470 kts | 30° |
| 2026-05-04 09:52 | 47.62554 | -0.99352 | 35991 ft | 470 kts | 30° |
| 2026-05-04 09:53 | 47.68266 | -0.94623 | 35984 ft | 470 kts | 30° |
| 2026-05-04 09:53 | 47.73586 | -0.89077 | 35985 ft | 467 kts | 46° |
| 2026-05-04 09:54 | 47.77720 | -0.81695 | 35958 ft | 464 kts | 55° |
| 2026-05-04 09:54 | 47.81647 | -0.74066 | 35969 ft | 465 kts | 54° |
| 2026-05-04 09:55 | 47.85584 | -0.66437 | 35973 ft | 464 kts | 54° |
| 2026-05-04 09:55 | 47.89510 | -0.58806 | 35977 ft | 464 kts | 54° |
| 2026-05-04 09:56 | 47.93416 | -0.51160 | 35978 ft | 464 kts | 54° |
| 2026-05-04 09:56 | 47.97314 | -0.43491 | 35977 ft | 464 kts | 55° |
| 2026-05-04 09:57 | 48.01212 | -0.35826 | 35981 ft | 463 kts | 54° |
| 2026-05-04 09:57 | 48.05106 | -0.28157 | 35986 ft | 463 kts | 55° |
| 2026-05-04 09:58 | 48.08314 | -0.19902 | 35979 ft | 458 kts | 68° |
| 2026-05-04 09:58 | 48.11014 | -0.11284 | 35977 ft | 458 kts | 68° |
| 2026-05-04 10:00 | 48.21781 | 0.23242 | 35962 ft | 459 kts | 68° |
| 2026-05-04 10:04 | 48.40448 | 0.84233 | 35974 ft | 460 kts | 69° |
| 2026-05-04 10:04 | 48.43085 | 0.92998 | 35959 ft | 459 kts | 69° |
| 2026-05-04 10:05 | 48.45716 | 1.01764 | 35967 ft | 459 kts | 69° |
| 2026-05-04 10:05 | 48.48343 | 1.10527 | 35977 ft | 459 kts | 69° |
| 2026-05-04 10:06 | 48.50967 | 1.19300 | 35980 ft | 459 kts | 69° |
| 2026-05-04 10:06 | 48.53580 | 1.28077 | 35982 ft | 459 kts | 69° |
| 2026-05-04 10:08 | 48.62670 | 1.58941 | 35974 ft | 460 kts | 70° |
| 2026-05-04 10:08 | 48.65219 | 1.67818 | 35981 ft | 460 kts | 72° |
| 2026-05-04 10:09 | 48.67473 | 1.76845 | 35958 ft | 458 kts | 75° |
| 2026-05-04 10:09 | 48.69581 | 1.85956 | 35967 ft | 459 kts | 75° |
| 2026-05-04 10:10 | 48.71719 | 1.95064 | 35983 ft | 460 kts | 74° |
| 2026-05-04 10:10 | 48.73910 | 2.04173 | 35988 ft | 460 kts | 74° |
| 2026-05-04 10:11 | 48.76125 | 2.13283 | 35993 ft | 461 kts | 73° |
| 2026-05-04 10:11 | 48.78104 | 2.20792 | 35974 ft | 462 kts | 71° |
| 2026-05-04 10:12 | 48.80577 | 2.29788 | 35982 ft | 462 kts | 71° |
| 2026-05-04 10:12 | 48.83017 | 2.38805 | 35983 ft | 462 kts | 72° |
| 2026-05-04 10:13 | 48.85417 | 2.47881 | 35991 ft | 462 kts | 72° |
| 2026-05-04 10:13 | 48.87796 | 2.56950 | 35992 ft | 462 kts | 72° |
| 2026-05-04 10:14 | 48.90180 | 2.66035 | 35968 ft | 463 kts | 72° |
| 2026-05-04 10:16 | 48.99728 | 3.02609 | 35991 ft | 466 kts | 72° |
| 2026-05-04 10:16 | 49.02083 | 3.11785 | 35965 ft | 465 kts | 72° |
| 2026-05-04 10:17 | 49.04429 | 3.20954 | 35975 ft | 465 kts | 72° |
| 2026-05-04 10:19 | 49.14138 | 3.57651 | 35958 ft | 472 kts | 60° |
| 2026-05-04 10:19 | 49.18258 | 3.65493 | 35966 ft | 475 kts | 50° |
| 2026-05-04 10:20 | 49.22644 | 3.73066 | 35979 ft | 476 kts | 50° |
| 2026-05-04 10:20 | 49.27019 | 3.80670 | 35986 ft | 476 kts | 50° |
| 2026-05-04 10:21 | 49.31377 | 3.88303 | 35989 ft | 476 kts | 50° |
| 2026-05-04 10:21 | 49.35733 | 3.95953 | 35991 ft | 476 kts | 50° |
| 2026-05-04 10:22 | 49.42289 | 4.07418 | 35997 ft | 476 kts | 50° |
| 2026-05-04 10:23 | 49.46651 | 4.15087 | 36015 ft | 476 kts | 50° |
| 2026-05-04 10:25 | 49.63982 | 4.45820 | 36014 ft | 476 kts | 51° |
| 2026-05-04 10:25 | 49.68305 | 4.53548 | 36009 ft | 476 kts | 50° |
| 2026-05-04 10:26 | 49.72632 | 4.61300 | 36003 ft | 476 kts | 50° |
| 2026-05-04 10:26 | 49.76958 | 4.69074 | 36005 ft | 477 kts | 50° |
| 2026-05-04 10:27 | 49.81294 | 4.76883 | 36085 ft | 480 kts | 50° |
| 2026-05-04 10:27 | 49.83462 | 4.80801 | 36314 ft | 480 kts | 50° |
| 2026-05-04 10:27 | 49.85631 | 4.84730 | 36576 ft | 479 kts | 51° |
| 2026-05-04 10:27 | 49.87791 | 4.88648 | 36875 ft | 477 kts | 51° |
| 2026-05-04 10:28 | 49.89948 | 4.92560 | 37015 ft | 476 kts | 50° |
| 2026-05-04 10:28 | 49.94242 | 5.00352 | 37001 ft | 474 kts | 51° |
| 2026-05-04 10:29 | 49.98523 | 5.08160 | 37015 ft | 475 kts | 50° |
| 2026-05-04 10:29 | 50.02795 | 5.15997 | 37016 ft | 475 kts | 50° |
| 2026-05-04 10:30 | 50.07068 | 5.23846 | 37013 ft | 475 kts | 51° |
| 2026-05-04 10:30 | 50.11336 | 5.31707 | 37019 ft | 475 kts | 51° |
| 2026-05-04 10:31 | 50.15603 | 5.39572 | 37018 ft | 475 kts | 50° |
| 2026-05-04 10:32 | 50.30654 | 5.67035 | 37010 ft | 476 kts | 50° |
| 2026-05-04 10:33 | 50.34937 | 5.74932 | 36999 ft | 476 kts | 50° |
| 2026-05-04 10:33 | 50.39220 | 5.82847 | 36995 ft | 476 kts | 50° |
| 2026-05-04 10:34 | 50.43509 | 5.90769 | 36998 ft | 477 kts | 50° |
| 2026-05-04 10:34 | 50.47790 | 5.98711 | 36992 ft | 476 kts | 50° |
| 2026-05-04 10:35 | 50.52063 | 6.06664 | 36981 ft | 476 kts | 50° |
| 2026-05-04 10:35 | 50.56326 | 6.14632 | 36977 ft | 476 kts | 51° |
| 2026-05-04 10:36 | 50.60557 | 6.22562 | 36982 ft | 476 kts | 51° |
| 2026-05-04 10:36 | 50.64815 | 6.30551 | 36984 ft | 476 kts | 51° |
| 2026-05-04 10:37 | 50.69062 | 6.38545 | 36984 ft | 476 kts | 51° |
| 2026-05-04 10:37 | 50.73300 | 6.46573 | 36991 ft | 476 kts | 51° |
| 2026-05-04 10:39 | 50.87436 | 6.75533 | 36989 ft | 476 kts | 57° |
| 2026-05-04 10:40 | 50.91197 | 6.84172 | 36989 ft | 477 kts | 57° |
| 2026-05-04 10:40 | 50.94958 | 6.92833 | 36989 ft | 477 kts | 57° |
| 2026-05-04 10:41 | 50.98705 | 7.01516 | 36996 ft | 477 kts | 57° |
| 2026-05-04 10:41 | 51.02439 | 7.10219 | 36989 ft | 477 kts | 57° |
| 2026-05-04 10:42 | 51.06162 | 7.18949 | 36984 ft | 477 kts | 57° |
| 2026-05-04 10:42 | 51.09891 | 7.27691 | 36993 ft | 478 kts | 57° |
| 2026-05-04 10:43 | 51.13621 | 7.36446 | 36986 ft | 478 kts | 57° |
| 2026-05-04 10:45 | 51.28470 | 7.71658 | 36985 ft | 479 kts | 57° |
| 2026-05-04 10:45 | 51.32176 | 7.80497 | 36989 ft | 479 kts | 57° |
| 2026-05-04 10:46 | 51.35877 | 7.89376 | 36987 ft | 480 kts | 57° |
| 2026-05-04 10:46 | 51.39567 | 7.98291 | 36982 ft | 480 kts | 57° |
| 2026-05-04 10:47 | 51.43256 | 8.07220 | 36982 ft | 481 kts | 57° |
| 2026-05-04 10:47 | 51.46946 | 8.16157 | 36985 ft | 481 kts | 57° |
| 2026-05-04 10:49 | 51.61643 | 8.52105 | 37003 ft | 482 kts | 57° |
| 2026-05-04 10:50 | 51.65304 | 8.61146 | 37000 ft | 482 kts | 57° |
| 2026-05-04 10:52 | 51.79887 | 8.97439 | 36993 ft | 482 kts | 57° |
| 2026-05-04 10:52 | 51.83511 | 9.06551 | 36995 ft | 482 kts | 57° |
| 2026-05-04 10:54 | 51.96333 | 9.44617 | 36993 ft | 482 kts | 64° |
| 2026-05-04 10:56 | 52.08144 | 9.83643 | 36989 ft | 482 kts | 64° |
| 2026-05-04 10:57 | 52.10607 | 9.91863 | 36981 ft | 482 kts | 64° |
| 2026-05-04 10:57 | 52.13540 | 10.01674 | 36994 ft | 482 kts | 64° |
| 2026-05-04 10:58 | 52.16463 | 10.11498 | 36993 ft | 482 kts | 64° |
| 2026-05-04 10:58 | 52.19373 | 10.21334 | 36990 ft | 482 kts | 64° |
| 2026-05-04 10:59 | 52.22281 | 10.31189 | 36880 ft | 483 kts | 65° |
| 2026-05-04 10:59 | 52.23731 | 10.36131 | 36622 ft | 482 kts | 65° |
| 2026-05-04 10:59 | 52.25175 | 10.41063 | 36368 ft | 482 kts | 65° |
| 2026-05-04 10:59 | 52.26620 | 10.45998 | 35874 ft | 481 kts | 64° |
| 2026-05-04 11:00 | 52.28060 | 10.50918 | 35301 ft | 480 kts | 65° |
| 2026-05-04 11:01 | 52.38992 | 10.83921 | 31436 ft | 461 kts | 43° |
| 2026-05-04 11:02 | 52.41249 | 10.87630 | 30929 ft | 458 kts | 43° |
| 2026-05-04 11:02 | 52.43489 | 10.91322 | 30453 ft | 455 kts | 43° |
| 2026-05-04 11:05 | 52.55650 | 11.52219 | 24090 ft | 400 kts | 91° |
| 2026-05-04 11:06 | 52.55743 | 11.56785 | 23605 ft | 399 kts | 90° |
| 2026-05-04 11:06 | 52.55834 | 11.61326 | 23094 ft | 397 kts | 90° |
| 2026-05-04 11:06 | 52.55922 | 11.65850 | 22630 ft | 394 kts | 91° |
| 2026-05-04 11:06 | 52.56009 | 11.70334 | 22175 ft | 392 kts | 91° |
| 2026-05-04 11:08 | 52.56566 | 12.01181 | 19075 ft | 380 kts | 91° |
| 2026-05-04 11:10 | 52.57430 | 12.30967 | 16101 ft | 366 kts | 82° |
| 2026-05-04 11:12 | 52.60173 | 12.59543 | 13314 ft | 356 kts | 82° |
| 2026-05-04 11:12 | 52.60553 | 12.63552 | 12944 ft | 352 kts | 82° |
| 2026-05-04 11:12 | 52.60932 | 12.67529 | 12518 ft | 351 kts | 82° |
| 2026-05-04 11:12 | 52.61308 | 12.71477 | 12110 ft | 348 kts | 82° |
| 2026-05-04 11:13 | 52.61683 | 12.75326 | 11874 ft | 341 kts | 81° |
| 2026-05-04 11:13 | 52.62093 | 12.79165 | 11744 ft | 331 kts | 81° |
| 2026-05-04 11:13 | 52.62503 | 12.82844 | 11625 ft | 325 kts | 80° |
| 2026-05-04 11:13 | 52.62911 | 12.86487 | 11519 ft | 323 kts | 81° |
| 2026-05-04 11:14 | 52.63310 | 12.90068 | 11400 ft | 322 kts | 81° |
| 2026-05-04 11:14 | 52.63709 | 12.93691 | 11199 ft | 322 kts | 81° |
| 2026-05-04 11:14 | 52.64104 | 12.97303 | 10958 ft | 319 kts | 81° |
| 2026-05-04 11:16 | 52.66757 | 13.22316 | 9955 ft | 313 kts | 81° |
| 2026-05-04 11:16 | 52.67125 | 13.25796 | 9815 ft | 312 kts | 81° |
| 2026-05-04 11:16 | 52.67495 | 13.29308 | 9655 ft | 311 kts | 81° |
| 2026-05-04 11:17 | 52.67862 | 13.32811 | 9521 ft | 310 kts | 81° |
| 2026-05-04 11:17 | 52.68225 | 13.36306 | 9384 ft | 309 kts | 81° |
| 2026-05-04 11:19 | 52.70709 | 13.60588 | 8444 ft | 303 kts | 81° |
| 2026-05-04 11:19 | 52.71055 | 13.63994 | 8305 ft | 297 kts | 81° |
| 2026-05-04 11:19 | 52.71367 | 13.67293 | 8174 ft | 285 kts | 87° |
| 2026-05-04 11:19 | 52.71147 | 13.70422 | 8013 ft | 269 kts | 112° |
| 2026-05-04 11:20 | 52.70270 | 13.73008 | 7741 ft | 259 kts | 136° |
| 2026-05-04 11:20 | 52.68868 | 13.74830 | 7353 ft | 252 kts | 158° |
| 2026-05-04 11:20 | 52.67288 | 13.76071 | 7034 ft | 251 kts | 159° |
| 2026-05-04 11:20 | 52.65749 | 13.77282 | 6686 ft | 247 kts | 159° |
| 2026-05-04 11:22 | 52.55255 | 13.85557 | 4850 ft | 227 kts | 166° |
| 2026-05-04 11:22 | 52.53730 | 13.86034 | 4626 ft | 220 kts | 182° |
| 2026-05-04 11:23 | 52.52228 | 13.85907 | 4435 ft | 213 kts | 188° |
| 2026-05-04 11:23 | 52.50759 | 13.85722 | 4243 ft | 210 kts | 188° |
| 2026-05-04 11:24 | 52.42918 | 13.82150 | 3565 ft | 190 kts | 240° |
| 2026-05-04 11:25 | 52.42387 | 13.80186 | 3420 ft | 188 kts | 250° |
| 2026-05-04 11:25 | 52.41925 | 13.78200 | 3345 ft | 182 kts | 249° |
| 2026-05-04 11:25 | 52.41473 | 13.76264 | 3178 ft | 180 kts | 249° |
| 2026-05-04 11:26 | 52.40591 | 13.72497 | 2724 ft | 176 kts | 250° |
| 2026-05-04 11:27 | 52.37687 | 13.60139 | 1189 ft | 146 kts | 250° |
| 2026-05-04 11:28 | 52.37326 | 13.58610 | 990 ft | 141 kts | 248° |
| 2026-05-04 11:28 | 52.36975 | 13.57121 | 811 ft | 142 kts | 250° |
| 2026-05-04 11:28 | 52.36622 | 13.55626 | 626 ft | 138 kts | 249° |
| 2026-05-04 11:28 | 52.36267 | 13.54117 | 419 ft | 145 kts | 247° |
| 2026-05-04 11:29 | 52.35907 | 13.52598 | 218 ft | 141 kts | 250° |
| 2026-05-04 11:29 | 52.35585 | 13.51165 | 162 ft | 124 kts | 251° |
| 2026-05-04 11:29 | 52.35304 | 13.50042 | 154 ft | 84 kts | 249° |
| 2026-05-04 11:29 | 52.35156 | 13.49417 | 154 ft | 37 kts | 249° |
| 2026-05-04 11:31 | 52.35324 | 13.48736 | 154 ft | 16 kts | 68° |
| 2026-05-04 11:33 | 52.35595 | 13.49876 | 154 ft | 14 kts | 70° |
| 2026-05-04 11:33 | 52.35636 | 13.50050 | 154 ft | 18 kts | 68° |
| 2026-05-04 11:33 | 52.35683 | 13.50248 | 154 ft | 20 kts | 69° |
| 2026-05-04 11:34 | 52.35735 | 13.50465 | 154 ft | 21 kts | 69° |
| 2026-05-04 11:34 | 52.35792 | 13.50636 | 154 ft | 13 kts | 21° |
| 2026-05-04 11:34 | 52.35854 | 13.50635 | 154 ft | 11 kts | 22° |
| 2026-05-04 11:34 | 52.35900 | 13.50754 | 155 ft | 14 kts | 68° |
| 2026-05-04 11:35 | 52.35937 | 13.50911 | 155 ft | 16 kts | 69° |
| 2026-05-04 11:35 | 52.35978 | 13.51082 | 155 ft | 16 kts | 69° |
| 2026-05-04 11:35 | 52.36004 | 13.51187 | 155 ft | 8 kts | 69° |
| 2026-05-04 11:35 | 52.36037 | 13.51216 | 155 ft | 6 kts | 332° |
| 2026-05-04 11:36 | 52.36079 | 13.51187 | 155 ft | 6 kts | 339° |
| 2026-05-04 11:36 | 52.36095 | 13.51177 | 156 ft | 1 kts | 339° |